Toolesboro, Iowa
Current Conditions -  °F | °C
As of 1:15 AM on Saturday 20 Dec 2014 (Local Time) from KMUT Reporting Station
Overcast Overcast  
Wind Chill: 32°   Ceiling: 5000
Heat Index: 32°   Visibility: 10mi
Dew Point: 25°   Wind: 3mph
Humidity: 75%   Direction: 120°ESE
Pressure: 30.26"   Gusts: NA
Location:  41.1602°N, 91.246°W
Report Text: KMUT 200715Z AUTO 12003KT 10SM FEW034 OVC050 M00/M04 A3026 RMK AO2
Loading
Personal Weather Stations






























Interactive Weather Map New forecast layout! Learn more

10-Day Weather Forecast

Advertisements
Track Severe Weather on mobile